createdAt,value
2023-05-11T00:02:48.962Z,8.48
2023-05-11T00:07:51.354Z,8.40
2023-05-11T00:12:53.664Z,8.38
2023-05-11T00:17:56.029Z,8.30
2023-05-11T00:22:58.410Z,8.36
2023-05-11T00:28:00.748Z,8.28
2023-05-11T00:33:03.118Z,8.25
2023-05-11T00:38:05.589Z,8.26
2023-05-11T00:43:07.880Z,8.28
2023-05-11T00:48:10.207Z,8.28
2023-05-11T00:53:13.223Z,8.27
2023-05-11T00:58:16.219Z,8.34
2023-05-11T01:03:18.592Z,8.35
2023-05-11T01:08:21.300Z,8.27
2023-05-11T01:13:23.628Z,8.31
2023-05-11T01:18:26.288Z,8.34
2023-05-11T01:23:28.595Z,8.31
2023-05-11T01:28:31.354Z,8.38
2023-05-11T01:33:33.682Z,8.38
2023-05-11T01:38:36.018Z,8.37
2023-05-11T01:43:38.343Z,8.35
2023-05-11T01:48:40.897Z,8.27
2023-05-11T01:53:43.197Z,8.30
2023-05-11T01:58:45.468Z,8.29
2023-05-11T02:03:47.802Z,8.31
2023-05-11T02:08:50.107Z,8.24
2023-05-11T02:13:52.456Z,8.19
2023-05-11T02:18:54.869Z,8.18
2023-05-11T02:23:57.720Z,8.22
2023-05-11T02:29:00.032Z,8.23
2023-05-11T02:34:02.381Z,8.22
2023-05-11T02:39:04.682Z,8.26
2023-05-11T02:44:06.973Z,8.19
2023-05-11T02:49:09.328Z,8.15
2023-05-11T02:54:11.760Z,8.17
2023-05-11T02:59:14.230Z,8.19
2023-05-11T03:04:16.630Z,8.13
2023-05-11T03:09:18.910Z,8.12
2023-05-11T03:14:21.447Z,8.08
2023-05-11T03:19:23.829Z,8.03
2023-05-11T03:24:26.162Z,8.04
2023-05-11T03:29:28.930Z,7.99
2023-05-11T03:34:31.216Z,8.02
2023-05-11T03:39:33.542Z,7.89
2023-05-11T03:44:35.950Z,7.84
2023-05-11T03:49:38.450Z,7.80
2023-05-11T03:54:40.732Z,7.81
2023-05-11T03:59:43.002Z,7.77
2023-05-11T04:04:45.569Z,7.75
2023-05-11T04:09:48.221Z,7.74
2023-05-11T04:14:50.486Z,7.76
2023-05-11T04:19:52.798Z,7.75
2023-05-11T04:24:55.064Z,7.84
2023-05-11T04:29:57.331Z,7.77
2023-05-11T04:34:59.629Z,7.78
2023-05-11T04:40:02.413Z,7.78
2023-05-11T04:45:04.745Z,7.73
2023-05-11T04:50:07.088Z,7.71
2023-05-11T04:55:09.719Z,7.68
2023-05-11T05:00:12.336Z,7.66
2023-05-11T05:05:14.677Z,7.65
2023-05-11T05:10:17.260Z,7.71
2023-05-11T05:15:19.774Z,7.77
2023-05-11T05:20:22.053Z,7.81
2023-05-11T05:25:24.345Z,7.84
2023-05-11T05:30:26.618Z,7.83
2023-05-11T05:35:28.971Z,7.88
2023-05-11T05:40:31.395Z,7.92
2023-05-11T05:45:33.796Z,8.04
2023-05-11T05:50:36.360Z,8.00
2023-05-11T05:55:38.953Z,8.05
2023-05-11T06:00:41.215Z,8.06
2023-05-11T06:05:43.515Z,8.07
2023-05-11T06:10:46.522Z,8.20
2023-05-11T06:15:49.073Z,8.20
2023-05-11T06:20:51.573Z,8.25
2023-05-11T06:25:56.299Z,8.34
2023-05-11T06:30:59.267Z,8.35
2023-05-11T06:36:02.938Z,8.29
2023-05-11T06:41:07.484Z,8.38
2023-05-11T06:46:10.128Z,8.47
2023-05-11T06:51:12.627Z,8.49
2023-05-11T06:56:14.927Z,8.57
2023-05-11T07:01:17.388Z,8.55
2023-05-11T07:06:19.756Z,8.54
2023-05-11T07:11:22.662Z,8.54
2023-05-11T07:16:25.266Z,8.53
2023-05-11T07:21:27.759Z,8.58
2023-05-11T07:26:30.091Z,8.58
2023-05-11T07:31:33.467Z,8.56
2023-05-11T07:36:35.874Z,8.61
2023-05-11T07:41:38.198Z,8.66
2023-05-11T07:46:40.800Z,8.92
2023-05-11T07:51:43.397Z,9.19
2023-05-11T07:56:46.213Z,9.40
2023-05-11T08:01:48.613Z,9.58
2023-05-11T08:06:51.350Z,9.45
2023-05-11T08:11:56.323Z,9.32
2023-05-11T08:16:58.636Z,9.19
2023-05-11T08:22:01.286Z,9.29
2023-05-11T08:27:03.726Z,9.23
2023-05-11T08:32:06.165Z,9.72
2023-05-11T08:37:08.525Z,9.74
2023-05-11T08:42:10.879Z,9.83
2023-05-11T08:52:18.681Z,9.86
2023-05-11T08:57:21.275Z,10.01
2023-05-11T09:02:23.820Z,10.05
2023-05-11T09:07:26.302Z,10.15
2023-05-11T09:12:28.840Z,10.28
2023-05-11T09:17:31.456Z,10.39
2023-05-11T09:22:36.069Z,10.35
2023-05-11T09:27:41.054Z,10.47
2023-05-11T09:32:44.124Z,10.49
2023-05-11T09:37:46.989Z,10.43
2023-05-11T09:42:49.709Z,10.52
2023-05-11T09:47:52.863Z,10.43
2023-05-11T09:52:55.366Z,10.33
2023-05-11T09:57:58.285Z,10.24
2023-05-11T10:03:00.997Z,10.51
2023-05-11T10:08:04.139Z,10.47
2023-05-11T10:13:06.654Z,10.63
2023-05-11T10:18:09.422Z,10.32
2023-05-11T10:23:12.059Z,10.12
2023-05-11T10:28:14.752Z,9.95
2023-05-11T10:33:17.346Z,10.06
2023-05-11T10:38:22.499Z,10.09
2023-05-11T10:43:25.362Z,10.21
2023-05-11T10:48:28.009Z,10.49
2023-05-11T10:53:30.562Z,10.39
2023-05-11T10:58:33.093Z,10.40
2023-05-11T11:03:36.054Z,10.32
2023-05-11T11:08:38.598Z,10.53
2023-05-11T11:13:41.285Z,10.61
2023-05-11T11:18:43.983Z,10.74
2023-05-11T11:23:49.241Z,10.86
2023-05-11T11:28:52.095Z,11.04
2023-05-11T11:33:56.166Z,10.93
2023-05-11T11:38:58.952Z,10.86
2023-05-11T11:44:01.394Z,10.81
2023-05-11T11:49:03.689Z,10.77
2023-05-11T11:54:06.776Z,10.80
2023-05-11T11:59:13.697Z,10.70
2023-05-11T12:04:17.116Z,10.74
2023-05-11T12:09:19.622Z,10.42
2023-05-11T12:14:22.080Z,10.23
2023-05-11T12:19:24.694Z,10.23
2023-05-11T12:24:27.468Z,10.17
2023-05-11T12:29:29.789Z,10.32
2023-05-11T12:34:32.222Z,10.29
2023-05-11T12:39:36.047Z,10.43
2023-05-11T12:44:38.502Z,10.53
2023-05-11T12:49:40.970Z,10.45
2023-05-11T12:54:43.527Z,10.47
2023-05-11T12:59:45.864Z,10.59
2023-05-11T13:04:48.147Z,10.72
2023-05-11T13:09:50.473Z,10.73
2023-05-11T13:14:52.831Z,10.61
2023-05-11T13:19:55.183Z,10.46
2023-05-11T13:24:57.677Z,10.43
2023-05-11T13:30:00.264Z,10.45
2023-05-11T13:35:02.583Z,10.31
2023-05-11T13:40:04.981Z,10.27
2023-05-11T13:45:08.043Z,10.23
2023-05-11T13:50:10.442Z,10.01
2023-05-11T13:55:12.771Z,9.95
2023-05-11T14:00:15.049Z,10.06
2023-05-11T14:05:17.593Z,10.07
2023-05-11T14:10:20.163Z,10.25
2023-05-11T14:15:22.765Z,10.31
2023-05-11T14:20:25.134Z,10.34
2023-05-11T14:25:27.814Z,10.29
2023-05-11T14:30:30.175Z,10.27
2023-05-11T14:35:32.962Z,10.31
2023-05-11T14:40:35.535Z,10.38
2023-05-11T14:45:38.424Z,10.25
2023-05-11T14:50:42.998Z,10.48
2023-05-11T14:55:45.502Z,10.23
2023-05-11T15:00:48.188Z,10.29
2023-05-11T15:05:50.987Z,10.25
2023-05-11T15:10:53.687Z,10.14
2023-05-11T15:15:56.260Z,10.13
2023-05-11T15:20:58.986Z,10.20
2023-05-11T15:26:01.474Z,10.12
2023-05-11T15:31:03.831Z,10.12
2023-05-11T15:36:06.672Z,10.15
2023-05-11T15:41:09.061Z,10.19
2023-05-11T15:46:11.748Z,10.25
2023-05-11T15:51:14.534Z,10.05
2023-05-11T15:56:17.396Z,10.10
2023-05-11T16:01:20.057Z,10.15
2023-05-11T16:06:22.781Z,9.92
2023-05-11T16:11:25.307Z,10.06
2023-05-11T16:16:27.826Z,9.91
2023-05-11T16:21:30.389Z,9.96
2023-05-11T16:26:33.177Z,9.99
2023-05-11T16:31:36.057Z,10.03
2023-05-11T16:36:38.769Z,10.10
2023-05-11T16:41:41.518Z,10.15
2023-05-11T16:46:43.871Z,9.99
2023-05-11T16:51:46.622Z,9.92
2023-05-11T16:56:49.017Z,9.86
2023-05-11T17:01:51.474Z,9.86
2023-05-11T17:06:53.853Z,9.73
2023-05-11T17:11:56.390Z,9.80
2023-05-11T17:16:58.753Z,9.58
2023-05-11T17:22:01.208Z,9.59
2023-05-11T17:27:03.531Z,9.54
2023-05-11T17:32:06.039Z,9.59
2023-05-11T17:37:14.847Z,9.55
2023-05-11T17:42:23.930Z,9.62
2023-05-11T17:47:27.206Z,9.57
2023-05-11T17:52:30.400Z,9.58
2023-05-11T17:57:33.959Z,9.54
2023-05-11T18:02:37.443Z,9.52
2023-05-11T18:07:40.390Z,9.34
2023-05-11T18:12:43.513Z,9.39
2023-05-11T18:17:45.837Z,9.27
2023-05-11T18:22:57.347Z,9.21
2023-05-11T18:28:00.210Z,9.15
2023-05-11T18:33:02.574Z,9.15
2023-05-11T18:38:05.057Z,9.12
2023-05-11T18:43:08.203Z,9.07
2023-05-11T18:48:10.634Z,8.87
2023-05-11T18:53:13.414Z,8.90
2023-05-11T18:58:20.403Z,8.87
2023-05-11T19:03:23.202Z,8.96
2023-05-11T19:08:26.387Z,9.01
2023-05-11T19:13:28.742Z,9.04
2023-05-11T19:18:32.589Z,9.02
2023-05-11T19:23:35.471Z,8.96
2023-05-11T19:28:37.847Z,8.97
2023-05-11T19:33:40.246Z,8.89
2023-05-11T19:38:42.860Z,8.89
2023-05-11T19:43:45.212Z,8.92
2023-05-11T19:48:47.894Z,8.74
2023-05-11T19:53:50.386Z,8.66
2023-05-11T19:58:52.772Z,8.72
2023-05-11T20:03:56.310Z,8.64
2023-05-11T20:08:58.800Z,8.65
2023-05-11T20:14:01.325Z,8.64
2023-05-11T20:19:03.691Z,8.68
2023-05-11T20:24:06.129Z,8.68
2023-05-11T20:29:09.658Z,8.68
2023-05-11T20:34:12.095Z,8.65
2023-05-11T20:39:14.772Z,8.60
2023-05-11T20:44:17.489Z,8.65
2023-05-11T20:49:34.638Z,8.69
2023-05-11T20:54:40.702Z,8.71
2023-05-11T21:04:48.402Z,8.56
2023-05-11T21:09:50.914Z,8.48
2023-05-11T21:14:55.498Z,8.50
2023-05-11T21:19:59.482Z,8.44
2023-05-11T21:25:01.798Z,8.46
2023-05-11T21:30:04.537Z,8.51
2023-05-11T21:35:06.917Z,8.51
2023-05-11T21:40:09.613Z,8.57
2023-05-11T21:45:13.545Z,8.51
2023-05-11T21:50:16.493Z,8.55
2023-05-11T21:55:19.266Z,8.52
2023-05-11T22:00:22.561Z,8.45
2023-05-11T22:05:25.014Z,8.48
2023-05-11T22:10:27.280Z,8.56
2023-05-11T22:15:30.124Z,8.63
2023-05-11T22:20:32.468Z,8.53
2023-05-11T22:25:35.430Z,8.62
2023-05-11T22:30:38.015Z,8.67
2023-05-11T22:35:41.055Z,8.58
2023-05-11T22:40:43.440Z,8.61
2023-05-11T22:45:46.259Z,8.62
2023-05-11T22:50:49.049Z,8.72
2023-05-11T22:55:51.405Z,8.75
2023-05-11T23:00:56.436Z,8.76
2023-05-11T23:05:58.912Z,8.81
2023-05-11T23:11:01.323Z,8.83
2023-05-11T23:16:04.329Z,8.74
2023-05-11T23:21:06.657Z,8.69
2023-05-11T23:26:08.962Z,8.60
2023-05-11T23:31:11.263Z,8.71
2023-05-11T23:36:14.851Z,8.63
2023-05-11T23:41:17.534Z,8.68
2023-05-11T23:46:19.870Z,8.63
2023-05-11T23:51:22.965Z,8.60
2023-05-11T23:56:25.790Z,8.59
